New York, NY

9:43 AM EDT on March 29, 2015 (GMT -0400)
Flatiron | | Change Station
CLOSE
Current Station
Personal Weather Station
Location: New York, NY
Elevation: 207 ft
Nearby Weather Stations

Elev 207 ft 40.74 °N, 73.99 °W | Updated 6 seconds ago

Partly Cloudy
Partly Cloudy
28.8 °F
Feels Like 22 °F
N
6.0
Wind Variable Wind from NW
Gusts 7.4 mph

Today
High -- | Low -- °F
--% Chance of Precip.
Yesterday
High -- | Low -- °F
Precip. -- in
6:44 AM 7:17 PM
Waxing Gibbous, 71% visible
Pressure 30.27 in
Visibility 10.0 miles
Clouds Few 5500 ft
Windchill 22 °F
Dew Point -1 °F
Humidity 27%
Rainfall 0.00 in
Snow Depth Not available.
UV 1.0 out of 12
Pollen 7.30 out of 12
Air Quality Not available.
Flu Activity Not available.
METAR KNYC 291251Z AUTO 30004KT 10SM FEW055 M03/M16 A3028 RMK AO2 SLP248 T10281156 $

More Conditions Fewer Conditions

Pressure 30.27 in
Visibility 10.0 miles
Clouds Few 5500 ft
Windchill 22 °F
Dew Point -1 °F
Humidity 27%
Rainfall 0.00 in
Snow Depth Not available.
UV 1.0 out of 12
Pollen 7.30 out of 12
Air Quality Not available.
Flu Activity Not available.
METAR KNYC 291251Z AUTO 30004KT 10SM FEW055 M03/M16 A3028 RMK AO2 SLP248 T10281156 $

More Conditions Fewer Conditions

10-Day Weather Forecast

Almanac

Astronomy

Mar. 29, 2015 Rise Set
Actual Time
Civil Twilight
Nautical Twilight
Astronomical Twilight
Moon
Length of Visible Light
Length of Day
Tomorrow will be .
, % of the Moon is Illuminated

Today's Extremes

State Highs State Lows

Community

WunderPhotos

Upload Photos

1,809,234 photos uploaded!

WunderBlogs® & News

Nearby

Air Quality

  Air Quality AQ Index Pollutant
Not available.

Snow Depth

Station Depth Elevation

Earthquake Activity

City Distance Mag. Time & Date
Minimum magnitude displayed is 2.5.

Coastal Water Temperatures

Place Temperature

Stations

Nearby Weather Stations

Station Location Temp. Windchill Dew Point Humidity Wind Precip. Elev Updated Type